Terminal Aerodrome Forecast
Issued by NWS Pittsburgh, PA

Current Version | Previous Version | Graphics & Text | Print | Product List | Glossary On
Versions: 1 2 3 4 5 6 7 8 9 10 11 12 13 14 15 16 17 18 19 20 21 22 23 24 25 26 27 28
000
FTUS41 KPBZ 170104 AAA
TAFPIT
TAF AMD
KPIT 170104Z 1701/1806 14006KT P6SM VCSH BKN040
     FM170600 17006KT P6SM OVC025
     FM170800 19005KT 4SM -SHRA BR OVC012
     FM171000 21006KT 5SM -SHRA BR OVC008
     FM171500 26009KT P6SM BKN025
     FM171800 30006KT P6SM SCT035=

USA.gov is the U.S. government's official web portal to all federal, state and local government web resources and services.